sensor_id;sensor_type;location;lat;lon;timestamp;P1;durP1;ratioP1;P2;durP2;ratioP2
6203;SDS011;3135;42.602;23.468;2022-07-24T00:00:13;9.30;;;4.22;;
6203;SDS011;3135;42.602;23.468;2022-07-24T00:02:39;6.90;;;4.50;;
6203;SDS011;3135;42.602;23.468;2022-07-24T00:05:05;7.97;;;4.10;;
6203;SDS011;3135;42.602;23.468;2022-07-24T00:07:31;5.93;;;4.07;;
6203;SDS011;3135;42.602;23.468;2022-07-24T00:09:56;9.45;;;4.80;;
6203;SDS011;3135;42.602;23.468;2022-07-24T00:12:22;6.87;;;4.37;;
6203;SDS011;3135;42.602;23.468;2022-07-24T00:14:47;6.00;;;3.70;;
6203;SDS011;3135;42.602;23.468;2022-07-24T00:17:13;6.90;;;3.80;;
6203;SDS011;3135;42.602;23.468;2022-07-24T00:19:38;11.43;;;4.30;;
6203;SDS011;3135;42.602;23.468;2022-07-24T00:22:03;8.73;;;4.20;;
6203;SDS011;3135;42.602;23.468;2022-07-24T00:24:29;8.37;;;4.10;;
6203;SDS011;3135;42.602;23.468;2022-07-24T00:26:55;8.48;;;3.65;;
6203;SDS011;3135;42.602;23.468;2022-07-24T00:29:20;6.47;;;4.03;;
6203;SDS011;3135;42.602;23.468;2022-07-24T00:31:46;8.20;;;4.30;;
6203;SDS011;3135;42.602;23.468;2022-07-24T00:34:11;6.85;;;4.20;;
6203;SDS011;3135;42.602;23.468;2022-07-24T00:36:37;11.83;;;4.50;;
6203;SDS011;3135;42.602;23.468;2022-07-24T00:39:02;9.57;;;4.30;;
6203;SDS011;3135;42.602;23.468;2022-07-24T00:41:28;7.18;;;3.90;;
6203;SDS011;3135;42.602;23.468;2022-07-24T00:44:07;8.33;;;3.70;;
6203;SDS011;3135;42.602;23.468;2022-07-24T00:46:34;9.20;;;4.72;;
6203;SDS011;3135;42.602;23.468;2022-07-24T00:49:03;8.20;;;4.50;;
6203;SDS011;3135;42.602;23.468;2022-07-24T00:51:30;11.77;;;4.55;;
6203;SDS011;3135;42.602;23.468;2022-07-24T00:53:56;7.72;;;3.80;;
6203;SDS011;3135;42.602;23.468;2022-07-24T00:56:21;5.10;;;3.60;;
6203;SDS011;3135;42.602;23.468;2022-07-24T00:58:47;9.80;;;4.80;;
6203;SDS011;3135;42.602;23.468;2022-07-24T01:01:13;5.45;;;3.90;;
6203;SDS011;3135;42.602;23.468;2022-07-24T01:03:39;7.80;;;3.78;;
6203;SDS011;3135;42.602;23.468;2022-07-24T01:06:06;9.88;;;4.38;;
6203;SDS011;3135;42.602;23.468;2022-07-24T01:08:32;7.07;;;4.10;;
6203;SDS011;3135;42.602;23.468;2022-07-24T01:10:59;5.25;;;3.90;;
6203;SDS011;3135;42.602;23.468;2022-07-24T01:13:26;12.05;;;4.40;;
6203;SDS011;3135;42.602;23.468;2022-07-24T01:15:52;8.43;;;4.43;;
6203;SDS011;3135;42.602;23.468;2022-07-24T01:18:17;7.17;;;4.47;;
6203;SDS011;3135;42.602;23.468;2022-07-24T01:20:45;9.60;;;4.13;;
6203;SDS011;3135;42.602;23.468;2022-07-24T01:23:12;10.80;;;4.72;;
6203;SDS011;3135;42.602;23.468;2022-07-24T01:25:38;6.38;;;4.05;;
6203;SDS011;3135;42.602;23.468;2022-07-24T01:28:04;6.18;;;4.07;;
6203;SDS011;3135;42.602;23.468;2022-07-24T01:30:30;8.70;;;4.30;;
6203;SDS011;3135;42.602;23.468;2022-07-24T01:32:55;9.13;;;4.40;;
6203;SDS011;3135;42.602;23.468;2022-07-24T01:35:21;7.70;;;4.10;;
6203;SDS011;3135;42.602;23.468;2022-07-24T01:37:46;8.75;;;4.25;;
6203;SDS011;3135;42.602;23.468;2022-07-24T01:40:11;9.80;;;4.23;;
6203;SDS011;3135;42.602;23.468;2022-07-24T01:42:37;9.70;;;4.20;;
6203;SDS011;3135;42.602;23.468;2022-07-24T01:45:02;9.80;;;4.32;;
6203;SDS011;3135;42.602;23.468;2022-07-24T01:47:29;8.93;;;4.40;;
6203;SDS011;3135;42.602;23.468;2022-07-24T01:49:55;6.87;;;4.33;;
6203;SDS011;3135;42.602;23.468;2022-07-24T01:52:20;7.73;;;4.47;;
6203;SDS011;3135;42.602;23.468;2022-07-24T01:54:46;7.45;;;4.05;;
6203;SDS011;3135;42.602;23.468;2022-07-24T01:57:11;9.43;;;4.83;;
6203;SDS011;3135;42.602;23.468;2022-07-24T01:59:37;11.97;;;4.60;;
6203;SDS011;3135;42.602;23.468;2022-07-24T02:02:02;9.38;;;4.70;;
6203;SDS011;3135;42.602;23.468;2022-07-24T02:04:28;8.53;;;4.63;;
6203;SDS011;3135;42.602;23.468;2022-07-24T02:06:53;12.00;;;4.47;;
6203;SDS011;3135;42.602;23.468;2022-07-24T02:09:19;10.80;;;4.03;;
6203;SDS011;3135;42.602;23.468;2022-07-24T02:11:44;7.63;;;4.10;;
6203;SDS011;3135;42.602;23.468;2022-07-24T02:14:10;9.87;;;4.53;;
6203;SDS011;3135;42.602;23.468;2022-07-24T02:16:35;6.97;;;4.20;;
6203;SDS011;3135;42.602;23.468;2022-07-24T02:19:00;10.90;;;4.40;;
6203;SDS011;3135;42.602;23.468;2022-07-24T02:21:26;9.80;;;4.50;;
6203;SDS011;3135;42.602;23.468;2022-07-24T02:23:51;8.97;;;4.27;;
6203;SDS011;3135;42.602;23.468;2022-07-24T02:26:17;12.10;;;4.22;;
6203;SDS011;3135;42.602;23.468;2022-07-24T02:28:42;10.60;;;4.70;;
6203;SDS011;3135;42.602;23.468;2022-07-24T02:31:08;9.07;;;4.20;;
6203;SDS011;3135;42.602;23.468;2022-07-24T02:33:33;7.80;;;4.70;;
6203;SDS011;3135;42.602;23.468;2022-07-24T02:35:58;9.17;;;4.10;;
6203;SDS011;3135;42.602;23.468;2022-07-24T02:38:24;9.63;;;4.43;;
6203;SDS011;3135;42.602;23.468;2022-07-24T02:40:49;10.20;;;4.20;;
6203;SDS011;3135;42.602;23.468;2022-07-24T02:43:15;11.47;;;4.33;;
6203;SDS011;3135;42.602;23.468;2022-07-24T02:45:40;9.57;;;4.13;;
6203;SDS011;3135;42.602;23.468;2022-07-24T02:48:06;7.70;;;4.22;;
6203;SDS011;3135;42.602;23.468;2022-07-24T02:50:32;9.30;;;4.30;;
6203;SDS011;3135;42.602;23.468;2022-07-24T02:53:00;6.10;;;4.10;;
6203;SDS011;3135;42.602;23.468;2022-07-24T02:55:26;8.27;;;4.30;;
6203;SDS011;3135;42.602;23.468;2022-07-24T02:57:53;7.70;;;4.22;;
6203;SDS011;3135;42.602;23.468;2022-07-24T03:00:20;7.30;;;3.85;;
6203;SDS011;3135;42.602;23.468;2022-07-24T03:02:45;8.40;;;4.18;;
6203;SDS011;3135;42.602;23.468;2022-07-24T03:05:11;6.75;;;3.85;;
6203;SDS011;3135;42.602;23.468;2022-07-24T03:07:37;10.48;;;4.10;;
6203;SDS011;3135;42.602;23.468;2022-07-24T03:10:04;10.38;;;4.20;;
6203;SDS011;3135;42.602;23.468;2022-07-24T03:12:30;7.70;;;4.32;;
6203;SDS011;3135;42.602;23.468;2022-07-24T03:14:56;10.70;;;4.27;;
6203;SDS011;3135;42.602;23.468;2022-07-24T03:17:21;8.37;;;4.20;;
6203;SDS011;3135;42.602;23.468;2022-07-24T03:19:47;8.82;;;4.57;;
6203;SDS011;3135;42.602;23.468;2022-07-24T03:22:12;8.53;;;4.17;;
6203;SDS011;3135;42.602;23.468;2022-07-24T03:24:38;7.70;;;4.17;;
6203;SDS011;3135;42.602;23.468;2022-07-24T03:27:03;8.17;;;4.53;;
6203;SDS011;3135;42.602;23.468;2022-07-24T03:29:29;10.07;;;4.40;;
6203;SDS011;3135;42.602;23.468;2022-07-24T03:31:54;9.98;;;5.10;;
6203;SDS011;3135;42.602;23.468;2022-07-24T03:34:20;14.57;;;4.70;;
6203;SDS011;3135;42.602;23.468;2022-07-24T03:36:45;14.63;;;5.10;;
6203;SDS011;3135;42.602;23.468;2022-07-24T03:39:11;9.75;;;4.32;;
6203;SDS011;3135;42.602;23.468;2022-07-24T03:41:36;12.40;;;4.87;;
6203;SDS011;3135;42.602;23.468;2022-07-24T03:44:02;8.57;;;4.47;;
6203;SDS011;3135;42.602;23.468;2022-07-24T03:46:27;10.07;;;4.85;;
6203;SDS011;3135;42.602;23.468;2022-07-24T03:48:54;8.73;;;4.10;;
6203;SDS011;3135;42.602;23.468;2022-07-24T03:51:20;8.60;;;4.80;;
6203;SDS011;3135;42.602;23.468;2022-07-24T03:53:45;9.13;;;5.17;;
6203;SDS011;3135;42.602;23.468;2022-07-24T03:56:11;6.70;;;4.80;;
6203;SDS011;3135;42.602;23.468;2022-07-24T03:58:36;8.52;;;4.65;;
6203;SDS011;3135;42.602;23.468;2022-07-24T04:01:02;11.93;;;5.20;;
6203;SDS011;3135;42.602;23.468;2022-07-24T04:03:28;7.40;;;5.13;;
6203;SDS011;3135;42.602;23.468;2022-07-24T04:05:53;8.10;;;4.80;;
6203;SDS011;3135;42.602;23.468;2022-07-24T04:08:19;7.50;;;4.73;;
6203;SDS011;3135;42.602;23.468;2022-07-24T04:10:44;7.88;;;4.80;;
6203;SDS011;3135;42.602;23.468;2022-07-24T04:13:10;9.07;;;4.75;;
6203;SDS011;3135;42.602;23.468;2022-07-24T04:15:35;9.10;;;4.93;;
6203;SDS011;3135;42.602;23.468;2022-07-24T04:18:01;12.53;;;4.77;;
6203;SDS011;3135;42.602;23.468;2022-07-24T04:20:27;16.23;;;9.33;;
6203;SDS011;3135;42.602;23.468;2022-07-24T04:22:52;12.82;;;6.97;;
6203;SDS011;3135;42.602;23.468;2022-07-24T04:25:18;8.85;;;5.03;;
6203;SDS011;3135;42.602;23.468;2022-07-24T04:27:43;8.50;;;5.00;;
6203;SDS011;3135;42.602;23.468;2022-07-24T04:30:10;10.35;;;5.38;;
6203;SDS011;3135;42.602;23.468;2022-07-24T04:32:36;10.97;;;5.63;;
6203;SDS011;3135;42.602;23.468;2022-07-24T04:35:02;18.30;;;9.55;;
6203;SDS011;3135;42.602;23.468;2022-07-24T04:37:28;16.75;;;8.52;;
6203;SDS011;3135;42.602;23.468;2022-07-24T04:39:54;15.90;;;8.03;;
6203;SDS011;3135;42.602;23.468;2022-07-24T04:42:19;13.13;;;7.80;;
6203;SDS011;3135;42.602;23.468;2022-07-24T04:44:45;14.13;;;7.43;;
6203;SDS011;3135;42.602;23.468;2022-07-24T04:47:10;11.37;;;6.60;;
6203;SDS011;3135;42.602;23.468;2022-07-24T04:49:36;13.00;;;6.20;;
6203;SDS011;3135;42.602;23.468;2022-07-24T04:52:01;13.07;;;7.07;;
6203;SDS011;3135;42.602;23.468;2022-07-24T04:54:27;16.67;;;8.03;;
6203;SDS011;3135;42.602;23.468;2022-07-24T04:56:52;14.17;;;7.20;;
6203;SDS011;3135;42.602;23.468;2022-07-24T04:59:18;14.95;;;7.15;;
6203;SDS011;3135;42.602;23.468;2022-07-24T05:01:43;13.47;;;6.87;;
6203;SDS011;3135;42.602;23.468;2022-07-24T05:04:09;15.40;;;6.87;;
6203;SDS011;3135;42.602;23.468;2022-07-24T05:06:34;10.07;;;6.60;;
6203;SDS011;3135;42.602;23.468;2022-07-24T05:09:00;11.80;;;6.63;;
6203;SDS011;3135;42.602;23.468;2022-07-24T05:11:25;12.23;;;6.47;;
6203;SDS011;3135;42.602;23.468;2022-07-24T05:13:50;14.95;;;6.90;;
6203;SDS011;3135;42.602;23.468;2022-07-24T05:16:16;11.20;;;6.57;;
6203;SDS011;3135;42.602;23.468;2022-07-24T05:18:41;10.03;;;6.90;;
6203;SDS011;3135;42.602;23.468;2022-07-24T05:21:07;12.13;;;6.97;;
6203;SDS011;3135;42.602;23.468;2022-07-24T05:23:32;16.07;;;7.20;;
6203;SDS011;3135;42.602;23.468;2022-07-24T05:25:58;11.85;;;6.97;;
6203;SDS011;3135;42.602;23.468;2022-07-24T05:28:24;12.05;;;6.47;;
6203;SDS011;3135;42.602;23.468;2022-07-24T05:30:49;15.63;;;7.43;;
6203;SDS011;3135;42.602;23.468;2022-07-24T05:33:15;12.37;;;6.97;;
6203;SDS011;3135;42.602;23.468;2022-07-24T05:35:40;17.70;;;7.40;;
6203;SDS011;3135;42.602;23.468;2022-07-24T05:38:06;14.77;;;7.30;;
6203;SDS011;3135;42.602;23.468;2022-07-24T05:40:31;15.47;;;7.53;;
6203;SDS011;3135;42.602;23.468;2022-07-24T05:42:56;12.75;;;7.03;;
6203;SDS011;3135;42.602;23.468;2022-07-24T05:45:22;13.73;;;7.20;;
6203;SDS011;3135;42.602;23.468;2022-07-24T05:47:47;13.23;;;6.60;;
6203;SDS011;3135;42.602;23.468;2022-07-24T05:50:13;12.60;;;6.85;;
6203;SDS011;3135;42.602;23.468;2022-07-24T05:52:39;15.73;;;6.90;;
6203;SDS011;3135;42.602;23.468;2022-07-24T05:55:06;13.13;;;7.00;;
6203;SDS011;3135;42.602;23.468;2022-07-24T05:57:32;14.45;;;7.50;;
6203;SDS011;3135;42.602;23.468;2022-07-24T05:59:58;13.27;;;7.43;;
6203;SDS011;3135;42.602;23.468;2022-07-24T06:02:23;13.23;;;7.63;;
6203;SDS011;3135;42.602;23.468;2022-07-24T06:04:49;11.95;;;7.28;;
6203;SDS011;3135;42.602;23.468;2022-07-24T06:07:14;13.73;;;7.10;;
6203;SDS011;3135;42.602;23.468;2022-07-24T06:09:40;13.90;;;7.63;;
6203;SDS011;3135;42.602;23.468;2022-07-24T06:12:05;12.98;;;7.15;;
6203;SDS011;3135;42.602;23.468;2022-07-24T06:14:32;12.32;;;7.22;;
6203;SDS011;3135;42.602;23.468;2022-07-24T06:16:58;16.30;;;7.28;;
6203;SDS011;3135;42.602;23.468;2022-07-24T06:19:24;16.08;;;7.40;;
6203;SDS011;3135;42.602;23.468;2022-07-24T06:21:49;14.27;;;7.65;;
6203;SDS011;3135;42.602;23.468;2022-07-24T06:24:15;16.38;;;7.40;;
6203;SDS011;3135;42.602;23.468;2022-07-24T06:26:40;13.47;;;7.30;;
6203;SDS011;3135;42.602;23.468;2022-07-24T06:29:06;13.43;;;7.32;;
6203;SDS011;3135;42.602;23.468;2022-07-24T06:31:31;13.63;;;7.37;;
6203;SDS011;3135;42.602;23.468;2022-07-24T06:33:57;14.43;;;7.13;;
6203;SDS011;3135;42.602;23.468;2022-07-24T06:36:23;13.63;;;7.03;;
6203;SDS011;3135;42.602;23.468;2022-07-24T06:38:48;13.93;;;6.90;;
6203;SDS011;3135;42.602;23.468;2022-07-24T06:41:14;10.33;;;6.40;;
6203;SDS011;3135;42.602;23.468;2022-07-24T06:43:40;10.00;;;6.83;;
6203;SDS011;3135;42.602;23.468;2022-07-24T06:46:06;12.30;;;7.47;;
6203;SDS011;3135;42.602;23.468;2022-07-24T06:48:32;13.23;;;6.97;;
6203;SDS011;3135;42.602;23.468;2022-07-24T06:50:57;15.20;;;7.20;;
6203;SDS011;3135;42.602;23.468;2022-07-24T06:53:23;12.20;;;6.80;;
6203;SDS011;3135;42.602;23.468;2022-07-24T06:55:48;13.67;;;6.83;;
6203;SDS011;3135;42.602;23.468;2022-07-24T06:58:18;12.68;;;6.93;;
6203;SDS011;3135;42.602;23.468;2022-07-24T07:00:44;15.93;;;7.07;;
6203;SDS011;3135;42.602;23.468;2022-07-24T07:03:09;12.67;;;6.90;;
6203;SDS011;3135;42.602;23.468;2022-07-24T07:05:35;13.03;;;6.80;;
6203;SDS011;3135;42.602;23.468;2022-07-24T07:08:00;11.67;;;6.70;;
6203;SDS011;3135;42.602;23.468;2022-07-24T07:10:26;14.13;;;7.00;;
6203;SDS011;3135;42.602;23.468;2022-07-24T07:12:51;13.60;;;7.47;;
6203;SDS011;3135;42.602;23.468;2022-07-24T07:15:17;12.00;;;7.00;;
6203;SDS011;3135;42.602;23.468;2022-07-24T07:17:43;12.00;;;6.93;;
6203;SDS011;3135;42.602;23.468;2022-07-24T07:20:09;16.03;;;7.00;;
6203;SDS011;3135;42.602;23.468;2022-07-24T07:22:38;12.75;;;7.05;;
6203;SDS011;3135;42.602;23.468;2022-07-24T07:25:05;11.45;;;7.30;;
6203;SDS011;3135;42.602;23.468;2022-07-24T07:27:31;11.55;;;6.70;;
6203;SDS011;3135;42.602;23.468;2022-07-24T07:29:57;11.88;;;7.20;;
6203;SDS011;3135;42.602;23.468;2022-07-24T07:32:23;20.13;;;7.10;;
6203;SDS011;3135;42.602;23.468;2022-07-24T07:34:48;13.77;;;7.20;;
6203;SDS011;3135;42.602;23.468;2022-07-24T07:37:13;11.57;;;7.03;;
6203;SDS011;3135;42.602;23.468;2022-07-24T07:39:39;12.60;;;8.00;;
6203;SDS011;3135;42.602;23.468;2022-07-24T07:42:04;13.97;;;7.20;;
6203;SDS011;3135;42.602;23.468;2022-07-24T07:44:30;13.45;;;7.25;;
6203;SDS011;3135;42.602;23.468;2022-07-24T07:46:56;9.90;;;7.00;;
6203;SDS011;3135;42.602;23.468;2022-07-24T07:49:21;12.77;;;7.03;;
6203;SDS011;3135;42.602;23.468;2022-07-24T07:51:46;11.67;;;7.07;;
6203;SDS011;3135;42.602;23.468;2022-07-24T07:54:15;12.20;;;7.20;;
6203;SDS011;3135;42.602;23.468;2022-07-24T07:56:41;12.63;;;7.63;;
6203;SDS011;3135;42.602;23.468;2022-07-24T07:59:06;14.97;;;7.10;;
6203;SDS011;3135;42.602;23.468;2022-07-24T08:01:32;13.05;;;7.28;;
6203;SDS011;3135;42.602;23.468;2022-07-24T08:03:58;9.43;;;6.93;;
6203;SDS011;3135;42.602;23.468;2022-07-24T08:06:23;14.30;;;6.93;;
6203;SDS011;3135;42.602;23.468;2022-07-24T08:08:49;14.80;;;7.20;;
6203;SDS011;3135;42.602;23.468;2022-07-24T08:11:14;10.90;;;6.73;;
6203;SDS011;3135;42.602;23.468;2022-07-24T08:13:40;13.95;;;6.90;;
6203;SDS011;3135;42.602;23.468;2022-07-24T08:16:05;14.60;;;6.80;;
6203;SDS011;3135;42.602;23.468;2022-07-24T08:18:31;12.18;;;6.25;;
6203;SDS011;3135;42.602;23.468;2022-07-24T08:20:56;12.57;;;7.03;;
6203;SDS011;3135;42.602;23.468;2022-07-24T08:23:22;11.18;;;6.72;;
6203;SDS011;3135;42.602;23.468;2022-07-24T08:25:47;11.60;;;6.67;;
6203;SDS011;3135;42.602;23.468;2022-07-24T08:28:13;13.30;;;6.57;;
6203;SDS011;3135;42.602;23.468;2022-07-24T08:30:38;13.73;;;7.10;;
6203;SDS011;3135;42.602;23.468;2022-07-24T08:33:04;13.80;;;7.03;;
6203;SDS011;3135;42.602;23.468;2022-07-24T08:35:29;12.60;;;7.03;;
6203;SDS011;3135;42.602;23.468;2022-07-24T08:37:55;14.20;;;7.63;;
6203;SDS011;3135;42.602;23.468;2022-07-24T08:40:20;10.77;;;7.13;;
6203;SDS011;3135;42.602;23.468;2022-07-24T08:42:47;13.68;;;7.53;;
6203;SDS011;3135;42.602;23.468;2022-07-24T08:45:13;10.53;;;6.97;;
6203;SDS011;3135;42.602;23.468;2022-07-24T08:47:39;13.88;;;7.63;;
6203;SDS011;3135;42.602;23.468;2022-07-24T08:50:05;13.57;;;7.60;;
6203;SDS011;3135;42.602;23.468;2022-07-24T08:52:33;15.68;;;7.50;;
6203;SDS011;3135;42.602;23.468;2022-07-24T08:55:00;15.88;;;7.65;;
6203;SDS011;3135;42.602;23.468;2022-07-24T08:57:26;15.45;;;7.30;;
6203;SDS011;3135;42.602;23.468;2022-07-24T08:59:52;10.93;;;7.97;;
6203;SDS011;3135;42.602;23.468;2022-07-24T09:02:18;13.45;;;7.60;;
6203;SDS011;3135;42.602;23.468;2022-07-24T09:04:44;11.47;;;7.20;;
6203;SDS011;3135;42.602;23.468;2022-07-24T09:07:13;12.20;;;7.53;;
6203;SDS011;3135;42.602;23.468;2022-07-24T09:09:40;13.60;;;7.35;;
6203;SDS011;3135;42.602;23.468;2022-07-24T09:12:16;14.00;;;7.63;;
6203;SDS011;3135;42.602;23.468;2022-07-24T09:14:44;14.85;;;7.93;;
6203;SDS011;3135;42.602;23.468;2022-07-24T09:17:14;14.85;;;7.65;;
6203;SDS011;3135;42.602;23.468;2022-07-24T09:20:00;14.17;;;7.80;;
6203;SDS011;3135;42.602;23.468;2022-07-24T09:22:33;14.10;;;7.90;;
6203;SDS011;3135;42.602;23.468;2022-07-24T09:25:12;12.75;;;7.63;;
6203;SDS011;3135;42.602;23.468;2022-07-24T09:27:53;18.80;;;8.95;;
6203;SDS011;3135;42.602;23.468;2022-07-24T09:35:31;13.10;;;7.25;;
6203;SDS011;3135;42.602;23.468;2022-07-24T09:37:57;11.45;;;7.30;;
6203;SDS011;3135;42.602;23.468;2022-07-24T09:40:37;20.27;;;7.47;;
6203;SDS011;3135;42.602;23.468;2022-07-24T09:48:27;9.27;;;6.68;;
6203;SDS011;3135;42.602;23.468;2022-07-24T09:50:58;12.82;;;7.57;;
6203;SDS011;3135;42.602;23.468;2022-07-24T09:53:29;12.43;;;7.07;;
6203;SDS011;3135;42.602;23.468;2022-07-24T09:58:36;12.20;;;6.63;;
6203;SDS011;3135;42.602;23.468;2022-07-24T10:01:07;9.30;;;6.70;;
6203;SDS011;3135;42.602;23.468;2022-07-24T10:03:34;8.45;;;6.10;;
6203;SDS011;3135;42.602;23.468;2022-07-24T10:06:04;11.90;;;6.10;;
6203;SDS011;3135;42.602;23.468;2022-07-24T10:08:32;9.82;;;6.28;;
6203;SDS011;3135;42.602;23.468;2022-07-24T10:10:59;10.48;;;5.70;;
6203;SDS011;3135;42.602;23.468;2022-07-24T10:13:27;9.73;;;6.35;;
6203;SDS011;3135;42.602;23.468;2022-07-24T10:18:25;9.48;;;5.75;;
6203;SDS011;3135;42.602;23.468;2022-07-24T10:21:06;9.23;;;6.07;;
6203;SDS011;3135;42.602;23.468;2022-07-24T10:29:18;9.65;;;6.45;;
6203;SDS011;3135;42.602;23.468;2022-07-24T10:40:23;17.48;;;6.90;;
6203;SDS011;3135;42.602;23.468;2022-07-24T10:45:41;8.35;;;7.32;;
6203;SDS011;3135;42.602;23.468;2022-07-24T10:53:23;7.78;;;6.90;;
6203;SDS011;3135;42.602;23.468;2022-07-24T10:55:49;9.02;;;7.22;;
6203;SDS011;3135;42.602;23.468;2022-07-24T10:58:15;9.97;;;7.33;;
6203;SDS011;3135;42.602;23.468;2022-07-24T11:00:46;12.27;;;7.50;;
6203;SDS011;3135;42.602;23.468;2022-07-24T11:03:22;9.82;;;7.30;;
6203;SDS011;3135;42.602;23.468;2022-07-24T11:06:07;11.98;;;7.40;;
6203;SDS011;3135;42.602;23.468;2022-07-24T11:08:38;10.30;;;7.22;;
6203;SDS011;3135;42.602;23.468;2022-07-24T11:18:41;9.13;;;7.20;;
6203;SDS011;3135;42.602;23.468;2022-07-24T11:21:07;11.95;;;7.43;;
6203;SDS011;3135;42.602;23.468;2022-07-24T11:23:33;8.70;;;7.25;;
6203;SDS011;3135;42.602;23.468;2022-07-24T11:31:43;8.63;;;7.05;;
6203;SDS011;3135;42.602;23.468;2022-07-24T11:34:12;8.15;;;6.28;;
6203;SDS011;3135;42.602;23.468;2022-07-24T11:36:45;8.65;;;6.63;;
6203;SDS011;3135;42.602;23.468;2022-07-24T11:39:13;8.20;;;7.07;;
6203;SDS011;3135;42.602;23.468;2022-07-24T11:44:13;8.10;;;6.60;;
6203;SDS011;3135;42.602;23.468;2022-07-24T11:46:40;9.32;;;7.07;;
6203;SDS011;3135;42.602;23.468;2022-07-24T11:49:08;8.48;;;7.07;;
6203;SDS011;3135;42.602;23.468;2022-07-24T11:51:41;9.37;;;6.80;;
6203;SDS011;3135;42.602;23.468;2022-07-24T11:54:11;9.20;;;7.30;;
6203;SDS011;3135;42.602;23.468;2022-07-24T11:56:38;8.20;;;7.10;;
6203;SDS011;3135;42.602;23.468;2022-07-24T11:59:05;7.97;;;7.15;;
6203;SDS011;3135;42.602;23.468;2022-07-24T12:01:30;8.23;;;6.83;;
6203;SDS011;3135;42.602;23.468;2022-07-24T12:03:57;10.60;;;7.55;;
6203;SDS011;3135;42.602;23.468;2022-07-24T12:06:24;8.33;;;7.00;;
6203;SDS011;3135;42.602;23.468;2022-07-24T12:08:51;9.75;;;7.88;;
6203;SDS011;3135;42.602;23.468;2022-07-24T12:11:21;8.65;;;7.55;;
6203;SDS011;3135;42.602;23.468;2022-07-24T12:13:47;9.02;;;7.88;;
6203;SDS011;3135;42.602;23.468;2022-07-24T12:16:23;10.38;;;7.47;;
6203;SDS011;3135;42.602;23.468;2022-07-24T12:18:50;8.13;;;6.80;;
6203;SDS011;3135;42.602;23.468;2022-07-24T12:21:16;7.82;;;7.03;;
6203;SDS011;3135;42.602;23.468;2022-07-24T12:23:44;10.07;;;7.93;;
6203;SDS011;3135;42.602;23.468;2022-07-24T12:26:11;10.30;;;7.22;;
6203;SDS011;3135;42.602;23.468;2022-07-24T12:28:36;10.43;;;7.30;;
6203;SDS011;3135;42.602;23.468;2022-07-24T12:31:05;8.07;;;7.30;;
6203;SDS011;3135;42.602;23.468;2022-07-24T12:33:35;8.30;;;7.43;;
6203;SDS011;3135;42.602;23.468;2022-07-24T12:36:03;10.23;;;7.72;;
6203;SDS011;3135;42.602;23.468;2022-07-24T12:38:51;9.83;;;6.83;;
6203;SDS011;3135;42.602;23.468;2022-07-24T12:41:18;10.95;;;7.40;;
6203;SDS011;3135;42.602;23.468;2022-07-24T12:46:24;7.78;;;6.70;;
6203;SDS011;3135;42.602;23.468;2022-07-24T12:52:03;11.35;;;7.70;;
6203;SDS011;3135;42.602;23.468;2022-07-24T12:54:29;9.50;;;7.13;;
6203;SDS011;3135;42.602;23.468;2022-07-24T12:57:00;7.93;;;7.07;;
6203;SDS011;3135;42.602;23.468;2022-07-24T13:01:55;8.35;;;7.03;;
6203;SDS011;3135;42.602;23.468;2022-07-24T13:04:23;9.07;;;7.43;;
6203;SDS011;3135;42.602;23.468;2022-07-24T13:06:51;11.90;;;8.03;;
6203;SDS011;3135;42.602;23.468;2022-07-24T13:09:19;9.27;;;7.47;;
6203;SDS011;3135;42.602;23.468;2022-07-24T13:11:46;9.77;;;7.72;;
6203;SDS011;3135;42.602;23.468;2022-07-24T13:14:13;10.23;;;7.82;;
6203;SDS011;3135;42.602;23.468;2022-07-24T13:16:40;9.57;;;7.73;;
6203;SDS011;3135;42.602;23.468;2022-07-24T13:19:07;11.25;;;7.68;;
6203;SDS011;3135;42.602;23.468;2022-07-24T13:21:34;10.38;;;8.10;;
6203;SDS011;3135;42.602;23.468;2022-07-24T13:23:59;10.73;;;7.90;;
6203;SDS011;3135;42.602;23.468;2022-07-24T13:26:25;13.67;;;8.00;;
6203;SDS011;3135;42.602;23.468;2022-07-24T13:28:51;10.27;;;8.25;;
6203;SDS011;3135;42.602;23.468;2022-07-24T13:31:17;11.13;;;8.38;;
6203;SDS011;3135;42.602;23.468;2022-07-24T13:33:45;10.88;;;8.30;;
6203;SDS011;3135;42.602;23.468;2022-07-24T13:36:12;10.65;;;8.07;;
6203;SDS011;3135;42.602;23.468;2022-07-24T13:38:38;11.07;;;8.02;;
6203;SDS011;3135;42.602;23.468;2022-07-24T13:41:03;11.90;;;7.90;;
6203;SDS011;3135;42.602;23.468;2022-07-24T13:43:29;11.25;;;7.65;;
6203;SDS011;3135;42.602;23.468;2022-07-24T13:45:55;11.03;;;8.20;;
6203;SDS011;3135;42.602;23.468;2022-07-24T13:48:20;9.00;;;8.10;;
6203;SDS011;3135;42.602;23.468;2022-07-24T13:50:46;9.00;;;8.00;;
6203;SDS011;3135;42.602;23.468;2022-07-24T13:53:11;9.33;;;8.43;;
6203;SDS011;3135;42.602;23.468;2022-07-24T13:55:36;9.03;;;8.10;;
6203;SDS011;3135;42.602;23.468;2022-07-24T13:58:02;8.40;;;7.50;;
6203;SDS011;3135;42.602;23.468;2022-07-24T14:00:27;10.50;;;8.20;;
6203;SDS011;3135;42.602;23.468;2022-07-24T14:02:53;13.40;;;8.40;;
6203;SDS011;3135;42.602;23.468;2022-07-24T14:05:23;10.05;;;7.75;;
6203;SDS011;3135;42.602;23.468;2022-07-24T14:07:49;8.75;;;7.85;;
6203;SDS011;3135;42.602;23.468;2022-07-24T14:10:14;12.57;;;8.40;;
6203;SDS011;3135;42.602;23.468;2022-07-24T14:12:40;10.48;;;7.95;;
6203;SDS011;3135;42.602;23.468;2022-07-24T14:15:06;10.77;;;8.20;;
6203;SDS011;3135;42.602;23.468;2022-07-24T14:17:34;10.48;;;8.10;;
6203;SDS011;3135;42.602;23.468;2022-07-24T14:20:00;13.77;;;9.27;;
6203;SDS011;3135;42.602;23.468;2022-07-24T14:22:26;14.55;;;8.75;;
6203;SDS011;3135;42.602;23.468;2022-07-24T14:24:51;11.73;;;9.03;;
6203;SDS011;3135;42.602;23.468;2022-07-24T14:27:17;15.18;;;10.07;;
6203;SDS011;3135;42.602;23.468;2022-07-24T14:29:42;11.57;;;9.10;;
6203;SDS011;3135;42.602;23.468;2022-07-24T14:32:08;10.53;;;8.77;;
6203;SDS011;3135;42.602;23.468;2022-07-24T14:34:33;19.25;;;9.00;;
6203;SDS011;3135;42.602;23.468;2022-07-24T14:36:59;8.87;;;7.97;;
6203;SDS011;3135;42.602;23.468;2022-07-24T14:39:24;9.70;;;7.87;;
6203;SDS011;3135;42.602;23.468;2022-07-24T14:41:50;12.40;;;7.93;;
6203;SDS011;3135;42.602;23.468;2022-07-24T14:44:15;9.73;;;8.10;;
6203;SDS011;3135;42.602;23.468;2022-07-24T14:46:41;11.77;;;8.23;;
6203;SDS011;3135;42.602;23.468;2022-07-24T14:49:09;10.02;;;7.88;;
6203;SDS011;3135;42.602;23.468;2022-07-24T14:51:35;8.80;;;7.75;;
6203;SDS011;3135;42.602;23.468;2022-07-24T14:54:01;9.25;;;7.82;;
6203;SDS011;3135;42.602;23.468;2022-07-24T14:56:26;10.23;;;7.63;;
6203;SDS011;3135;42.602;23.468;2022-07-24T14:58:51;10.15;;;7.80;;
6203;SDS011;3135;42.602;23.468;2022-07-24T15:01:17;9.67;;;7.53;;
6203;SDS011;3135;42.602;23.468;2022-07-24T15:03:42;9.53;;;7.60;;
6203;SDS011;3135;42.602;23.468;2022-07-24T15:06:08;10.15;;;7.78;;
6203;SDS011;3135;42.602;23.468;2022-07-24T15:08:33;9.87;;;7.63;;
6203;SDS011;3135;42.602;23.468;2022-07-24T15:10:59;8.27;;;7.10;;
6203;SDS011;3135;42.602;23.468;2022-07-24T15:13:24;8.17;;;7.07;;
6203;SDS011;3135;42.602;23.468;2022-07-24T15:15:50;9.77;;;7.33;;
6203;SDS011;3135;42.602;23.468;2022-07-24T15:18:16;8.63;;;7.70;;
6203;SDS011;3135;42.602;23.468;2022-07-24T15:20:42;10.75;;;7.38;;
6203;SDS011;3135;42.602;23.468;2022-07-24T15:23:08;10.30;;;7.75;;
6203;SDS011;3135;42.602;23.468;2022-07-24T15:25:34;10.15;;;7.47;;
6203;SDS011;3135;42.602;23.468;2022-07-24T15:28:00;15.03;;;8.17;;
6203;SDS011;3135;42.602;23.468;2022-07-24T15:30:26;16.23;;;7.60;;
6203;SDS011;3135;42.602;23.468;2022-07-24T15:32:51;13.23;;;8.47;;
6203;SDS011;3135;42.602;23.468;2022-07-24T15:35:17;9.30;;;7.60;;
6203;SDS011;3135;42.602;23.468;2022-07-24T15:37:42;11.43;;;8.23;;
6203;SDS011;3135;42.602;23.468;2022-07-24T15:40:08;8.90;;;7.80;;
6203;SDS011;3135;42.602;23.468;2022-07-24T15:42:34;10.80;;;8.02;;
6203;SDS011;3135;42.602;23.468;2022-07-24T15:44:59;12.73;;;7.80;;
6203;SDS011;3135;42.602;23.468;2022-07-24T15:47:25;9.18;;;8.13;;
6203;SDS011;3135;42.602;23.468;2022-07-24T15:49:50;8.40;;;7.50;;